sensor_id;sensor_type;location;lat;lon;timestamp;P1;durP1;ratioP1;P2;durP2;ratioP2
20034;SDS011;10178;48.034;9.800;2023-03-23T00:00:52;3.20;;;2.45;;
20034;SDS011;10178;48.034;9.800;2023-03-23T00:03:19;3.00;;;2.58;;
20034;SDS011;10178;48.034;9.800;2023-03-23T00:05:46;2.95;;;2.40;;
20034;SDS011;10178;48.034;9.800;2023-03-23T00:08:17;3.38;;;2.67;;
20034;SDS011;10178;48.034;9.800;2023-03-23T00:10:50;3.28;;;2.35;;
20034;SDS011;10178;48.034;9.800;2023-03-23T00:13:24;4.32;;;2.55;;
20034;SDS011;10178;48.034;9.800;2023-03-23T00:15:51;6.93;;;3.08;;
20034;SDS011;10178;48.034;9.800;2023-03-23T00:18:19;3.88;;;2.85;;
20034;SDS011;10178;48.034;9.800;2023-03-23T00:20:50;3.10;;;2.60;;
20034;SDS011;10178;48.034;9.800;2023-03-23T00:23:21;2.83;;;2.55;;
20034;SDS011;10178;48.034;9.800;2023-03-23T00:25:53;4.50;;;2.60;;
20034;SDS011;10178;48.034;9.800;2023-03-23T00:28:24;3.05;;;2.53;;
20034;SDS011;10178;48.034;9.800;2023-03-23T00:30:58;4.03;;;2.60;;
20034;SDS011;10178;48.034;9.800;2023-03-23T00:33:27;3.85;;;2.95;;
20034;SDS011;10178;48.034;9.800;2023-03-23T00:35:54;2.67;;;2.28;;
20034;SDS011;10178;48.034;9.800;2023-03-23T00:38:21;5.10;;;2.90;;
20034;SDS011;10178;48.034;9.800;2023-03-23T00:40:48;3.38;;;2.78;;
20034;SDS011;10178;48.034;9.800;2023-03-23T00:43:15;3.40;;;2.67;;
20034;SDS011;10178;48.034;9.800;2023-03-23T00:45:42;4.78;;;2.50;;
20034;SDS011;10178;48.034;9.800;2023-03-23T00:48:09;2.90;;;2.38;;
20034;SDS011;10178;48.034;9.800;2023-03-23T00:50:37;4.15;;;2.60;;
20034;SDS011;10178;48.034;9.800;2023-03-23T00:53:03;3.97;;;2.63;;
20034;SDS011;10178;48.034;9.800;2023-03-23T00:55:29;2.65;;;2.33;;
20034;SDS011;10178;48.034;9.800;2023-03-23T00:57:55;2.50;;;2.30;;
20034;SDS011;10178;48.034;9.800;2023-03-23T01:00:21;4.13;;;2.30;;
20034;SDS011;10178;48.034;9.800;2023-03-23T01:02:48;5.75;;;2.92;;
20034;SDS011;10178;48.034;9.800;2023-03-23T01:05:16;4.97;;;3.03;;
20034;SDS011;10178;48.034;9.800;2023-03-23T01:07:42;4.40;;;2.53;;
20034;SDS011;10178;48.034;9.800;2023-03-23T01:10:09;3.92;;;2.53;;
20034;SDS011;10178;48.034;9.800;2023-03-23T01:12:37;3.20;;;2.25;;
20034;SDS011;10178;48.034;9.800;2023-03-23T01:15:04;5.25;;;2.65;;
20034;SDS011;10178;48.034;9.800;2023-03-23T01:17:30;2.58;;;2.30;;
20034;SDS011;10178;48.034;9.800;2023-03-23T01:19:56;2.50;;;2.30;;
20034;SDS011;10178;48.034;9.800;2023-03-23T01:22:22;4.35;;;2.40;;
20034;SDS011;10178;48.034;9.800;2023-03-23T01:24:48;2.85;;;2.40;;
20034;SDS011;10178;48.034;9.800;2023-03-23T01:27:13;3.90;;;3.50;;
20034;SDS011;10178;48.034;9.800;2023-03-23T01:29:39;5.55;;;4.75;;
20034;SDS011;10178;48.034;9.800;2023-03-23T01:32:05;4.20;;;2.67;;
20034;SDS011;10178;48.034;9.800;2023-03-23T01:34:30;3.35;;;2.55;;
20034;SDS011;10178;48.034;9.800;2023-03-23T01:36:56;3.83;;;2.72;;
20034;SDS011;10178;48.034;9.800;2023-03-23T01:39:22;4.05;;;2.90;;
20034;SDS011;10178;48.034;9.800;2023-03-23T01:41:47;4.55;;;2.80;;
20034;SDS011;10178;48.034;9.800;2023-03-23T01:46:42;8.98;;;5.45;;
20034;SDS011;10178;48.034;9.800;2023-03-23T01:49:10;8.73;;;5.00;;
20034;SDS011;10178;48.034;9.800;2023-03-23T01:51:43;9.30;;;5.72;;
20034;SDS011;10178;48.034;9.800;2023-03-23T01:54:20;7.15;;;5.28;;
20034;SDS011;10178;48.034;9.800;2023-03-23T01:57:01;7.85;;;5.00;;
20034;SDS011;10178;48.034;9.800;2023-03-23T01:59:30;7.45;;;4.95;;
20034;SDS011;10178;48.034;9.800;2023-03-23T02:01:57;6.57;;;4.97;;
20034;SDS011;10178;48.034;9.800;2023-03-23T02:04:23;9.18;;;5.60;;
20034;SDS011;10178;48.034;9.800;2023-03-23T02:06:50;10.05;;;4.93;;
20034;SDS011;10178;48.034;9.800;2023-03-23T02:09:17;4.10;;;2.97;;
20034;SDS011;10178;48.034;9.800;2023-03-23T02:11:44;7.00;;;2.97;;
20034;SDS011;10178;48.034;9.800;2023-03-23T02:14:10;3.30;;;3.00;;
20034;SDS011;10178;48.034;9.800;2023-03-23T02:19:30;3.38;;;2.70;;
20034;SDS011;10178;48.034;9.800;2023-03-23T02:25:32;3.28;;;2.97;;
20034;SDS011;10178;48.034;9.800;2023-03-23T02:31:16;5.47;;;3.38;;
20034;SDS011;10178;48.034;9.800;2023-03-23T02:33:58;7.97;;;5.00;;
20034;SDS011;10178;48.034;9.800;2023-03-23T02:36:33;4.97;;;3.35;;
20034;SDS011;10178;48.034;9.800;2023-03-23T02:41:45;8.98;;;4.85;;
20034;SDS011;10178;48.034;9.800;2023-03-23T02:44:23;6.93;;;5.22;;
20034;SDS011;10178;48.034;9.800;2023-03-23T02:46:52;7.38;;;5.40;;
20034;SDS011;10178;48.034;9.800;2023-03-23T02:49:19;3.40;;;3.10;;
20034;SDS011;10178;48.034;9.800;2023-03-23T02:51:46;3.70;;;2.80;;
20034;SDS011;10178;48.034;9.800;2023-03-23T02:54:13;9.80;;;4.95;;
20034;SDS011;10178;48.034;9.800;2023-03-23T02:56:41;5.97;;;5.30;;
20034;SDS011;10178;48.034;9.800;2023-03-23T02:59:08;3.15;;;2.65;;
20034;SDS011;10178;48.034;9.800;2023-03-23T03:04:11;3.63;;;2.70;;
20034;SDS011;10178;48.034;9.800;2023-03-23T03:12:13;7.82;;;4.82;;
20034;SDS011;10178;48.034;9.800;2023-03-23T03:18:22;5.43;;;3.55;;
20034;SDS011;10178;48.034;9.800;2023-03-23T03:20:43;5.78;;;5.00;;
20034;SDS011;10178;48.034;9.800;2023-03-23T03:23:13;6.28;;;5.18;;
20034;SDS011;10178;48.034;9.800;2023-03-23T03:25:40;6.57;;;5.07;;
20034;SDS011;10178;48.034;9.800;2023-03-23T03:28:12;8.90;;;5.80;;
20034;SDS011;10178;48.034;9.800;2023-03-23T03:30:51;7.72;;;5.20;;
20034;SDS011;10178;48.034;9.800;2023-03-23T03:33:20;4.65;;;3.42;;
20034;SDS011;10178;48.034;9.800;2023-03-23T03:35:50;8.45;;;4.88;;
20034;SDS011;10178;48.034;9.800;2023-03-23T03:38:17;4.60;;;3.28;;
20034;SDS011;10178;48.034;9.800;2023-03-23T03:40:42;4.75;;;3.38;;
20034;SDS011;10178;48.034;9.800;2023-03-23T03:43:08;4.35;;;3.47;;
20034;SDS011;10178;48.034;9.800;2023-03-23T03:45:34;4.53;;;3.30;;
20034;SDS011;10178;48.034;9.800;2023-03-23T03:47:59;3.20;;;2.88;;
20034;SDS011;10178;48.034;9.800;2023-03-23T03:50:26;6.10;;;4.93;;
20034;SDS011;10178;48.034;9.800;2023-03-23T03:52:52;4.45;;;3.50;;
20034;SDS011;10178;48.034;9.800;2023-03-23T03:55:18;10.73;;;4.90;;
20034;SDS011;10178;48.034;9.800;2023-03-23T03:57:44;4.60;;;4.03;;
20034;SDS011;10178;48.034;9.800;2023-03-23T04:00:10;3.47;;;3.13;;
20034;SDS011;10178;48.034;9.800;2023-03-23T04:02:49;6.32;;;5.00;;
20034;SDS011;10178;48.034;9.800;2023-03-23T04:05:19;7.55;;;5.10;;
20034;SDS011;10178;48.034;9.800;2023-03-23T04:07:46;6.20;;;3.50;;
20034;SDS011;10178;48.034;9.800;2023-03-23T04:10:14;5.65;;;3.10;;
20034;SDS011;10178;48.034;9.800;2023-03-23T04:12:40;3.97;;;3.20;;
20034;SDS011;10178;48.034;9.800;2023-03-23T04:15:06;7.60;;;3.17;;
20034;SDS011;10178;48.034;9.800;2023-03-23T04:17:32;3.40;;;2.40;;
20034;SDS011;10178;48.034;9.800;2023-03-23T04:19:59;3.17;;;2.58;;
20034;SDS011;10178;48.034;9.800;2023-03-23T04:22:25;4.30;;;2.42;;
20034;SDS011;10178;48.034;9.800;2023-03-23T04:24:57;5.15;;;2.67;;
20034;SDS011;10178;48.034;9.800;2023-03-23T04:27:25;4.25;;;2.90;;
20034;SDS011;10178;48.034;9.800;2023-03-23T04:29:53;5.30;;;2.72;;
20034;SDS011;10178;48.034;9.800;2023-03-23T04:32:19;4.88;;;2.50;;
20034;SDS011;10178;48.034;9.800;2023-03-23T04:34:46;4.25;;;2.25;;
20034;SDS011;10178;48.034;9.800;2023-03-23T04:37:11;3.58;;;2.45;;
20034;SDS011;10178;48.034;9.800;2023-03-23T04:39:38;3.08;;;2.55;;
20034;SDS011;10178;48.034;9.800;2023-03-23T04:42:05;4.10;;;2.38;;
20034;SDS011;10178;48.034;9.800;2023-03-23T04:44:30;3.13;;;2.42;;
20034;SDS011;10178;48.034;9.800;2023-03-23T04:46:57;4.93;;;2.33;;
20034;SDS011;10178;48.034;9.800;2023-03-23T04:49:26;4.40;;;2.38;;
20034;SDS011;10178;48.034;9.800;2023-03-23T04:51:51;3.58;;;1.75;;
20034;SDS011;10178;48.034;9.800;2023-03-23T04:54:17;2.28;;;1.80;;
20034;SDS011;10178;48.034;9.800;2023-03-23T04:56:43;2.92;;;2.30;;
20034;SDS011;10178;48.034;9.800;2023-03-23T04:59:08;2.40;;;1.70;;
20034;SDS011;10178;48.034;9.800;2023-03-23T05:01:34;4.57;;;2.10;;
20034;SDS011;10178;48.034;9.800;2023-03-23T05:04:02;3.60;;;1.85;;
20034;SDS011;10178;48.034;9.800;2023-03-23T05:06:28;2.15;;;1.60;;
20034;SDS011;10178;48.034;9.800;2023-03-23T05:08:54;4.10;;;1.90;;
20034;SDS011;10178;48.034;9.800;2023-03-23T05:11:19;4.30;;;2.03;;
20034;SDS011;10178;48.034;9.800;2023-03-23T05:13:45;3.58;;;1.80;;
20034;SDS011;10178;48.034;9.800;2023-03-23T05:16:11;3.03;;;1.90;;
20034;SDS011;10178;48.034;9.800;2023-03-23T05:18:37;3.42;;;1.70;;
20034;SDS011;10178;48.034;9.800;2023-03-23T05:21:03;3.05;;;1.80;;
20034;SDS011;10178;48.034;9.800;2023-03-23T05:23:29;2.20;;;1.83;;
20034;SDS011;10178;48.034;9.800;2023-03-23T05:25:56;2.25;;;2.00;;
20034;SDS011;10178;48.034;9.800;2023-03-23T05:28:27;3.60;;;2.17;;
20034;SDS011;10178;48.034;9.800;2023-03-23T05:30:53;2.85;;;2.17;;
20034;SDS011;10178;48.034;9.800;2023-03-23T05:33:20;3.80;;;2.50;;
20034;SDS011;10178;48.034;9.800;2023-03-23T05:35:46;3.17;;;2.65;;
20034;SDS011;10178;48.034;9.800;2023-03-23T05:38:13;3.95;;;2.63;;
20034;SDS011;10178;48.034;9.800;2023-03-23T05:40:39;3.30;;;2.47;;
20034;SDS011;10178;48.034;9.800;2023-03-23T05:43:06;2.22;;;1.92;;
20034;SDS011;10178;48.034;9.800;2023-03-23T05:45:32;2.65;;;2.35;;
20034;SDS011;10178;48.034;9.800;2023-03-23T05:47:58;3.05;;;2.40;;
20034;SDS011;10178;48.034;9.800;2023-03-23T05:50:24;3.58;;;2.45;;
20034;SDS011;10178;48.034;9.800;2023-03-23T05:52:50;6.03;;;2.70;;
20034;SDS011;10178;48.034;9.800;2023-03-23T05:55:17;4.68;;;2.70;;
20034;SDS011;10178;48.034;9.800;2023-03-23T05:57:42;4.10;;;3.00;;
20034;SDS011;10178;48.034;9.800;2023-03-23T06:00:08;5.30;;;3.03;;
20034;SDS011;10178;48.034;9.800;2023-03-23T06:02:45;7.15;;;2.78;;
20034;SDS011;10178;48.034;9.800;2023-03-23T06:05:13;5.00;;;2.67;;
20034;SDS011;10178;48.034;9.800;2023-03-23T06:07:39;2.55;;;2.22;;
20034;SDS011;10178;48.034;9.800;2023-03-23T06:10:05;3.20;;;1.88;;
20034;SDS011;10178;48.034;9.800;2023-03-23T06:12:32;2.83;;;1.92;;
20034;SDS011;10178;48.034;9.800;2023-03-23T06:14:58;3.30;;;2.00;;
20034;SDS011;10178;48.034;9.800;2023-03-23T06:17:24;2.75;;;1.85;;
20034;SDS011;10178;48.034;9.800;2023-03-23T06:19:50;4.65;;;2.00;;
20034;SDS011;10178;48.034;9.800;2023-03-23T06:22:16;2.95;;;2.42;;
20034;SDS011;10178;48.034;9.800;2023-03-23T06:24:42;3.05;;;1.90;;
20034;SDS011;10178;48.034;9.800;2023-03-23T06:27:09;3.80;;;3.00;;
20034;SDS011;10178;48.034;9.800;2023-03-23T06:29:35;6.18;;;3.10;;
20034;SDS011;10178;48.034;9.800;2023-03-23T06:32:02;2.22;;;2.03;;
20034;SDS011;10178;48.034;9.800;2023-03-23T06:34:29;3.65;;;2.97;;
20034;SDS011;10178;48.034;9.800;2023-03-23T06:36:57;22.42;;;10.50;;
20034;SDS011;10178;48.034;9.800;2023-03-23T06:39:23;4.57;;;2.97;;
20034;SDS011;10178;48.034;9.800;2023-03-23T06:41:49;3.55;;;2.38;;
20034;SDS011;10178;48.034;9.800;2023-03-23T06:44:15;5.18;;;2.92;;
20034;SDS011;10178;48.034;9.800;2023-03-23T06:46:41;3.10;;;2.40;;
20034;SDS011;10178;48.034;9.800;2023-03-23T06:49:08;6.63;;;2.92;;
20034;SDS011;10178;48.034;9.800;2023-03-23T06:51:34;5.50;;;3.03;;
20034;SDS011;10178;48.034;9.800;2023-03-23T06:54:01;5.88;;;2.70;;
20034;SDS011;10178;48.034;9.800;2023-03-23T06:56:27;4.00;;;3.10;;
20034;SDS011;10178;48.034;9.800;2023-03-23T06:58:52;3.67;;;2.63;;
20034;SDS011;10178;48.034;9.800;2023-03-23T07:01:18;3.53;;;2.80;;
20034;SDS011;10178;48.034;9.800;2023-03-23T07:03:44;5.85;;;2.97;;
20034;SDS011;10178;48.034;9.800;2023-03-23T07:06:10;3.78;;;2.60;;
20034;SDS011;10178;48.034;9.800;2023-03-23T07:08:36;3.85;;;3.00;;
20034;SDS011;10178;48.034;9.800;2023-03-23T07:11:02;6.95;;;2.55;;
20034;SDS011;10178;48.034;9.800;2023-03-23T07:13:28;5.40;;;2.53;;
20034;SDS011;10178;48.034;9.800;2023-03-23T07:15:54;2.65;;;2.30;;
20034;SDS011;10178;48.034;9.800;2023-03-23T07:18:20;3.35;;;2.88;;
20034;SDS011;10178;48.034;9.800;2023-03-23T07:20:49;3.17;;;2.40;;
20034;SDS011;10178;48.034;9.800;2023-03-23T07:23:16;2.97;;;2.50;;
20034;SDS011;10178;48.034;9.800;2023-03-23T07:25:42;8.02;;;2.47;;
20034;SDS011;10178;48.034;9.800;2023-03-23T07:28:10;5.38;;;3.22;;
20034;SDS011;10178;48.034;9.800;2023-03-23T07:33:30;4.28;;;2.65;;
20034;SDS011;10178;48.034;9.800;2023-03-23T07:36:18;2.20;;;1.98;;
20034;SDS011;10178;48.034;9.800;2023-03-23T07:39:26;3.65;;;2.60;;
20034;SDS011;10178;48.034;9.800;2023-03-23T07:41:55;4.10;;;2.35;;
20034;SDS011;10178;48.034;9.800;2023-03-23T07:44:25;2.92;;;2.45;;
20034;SDS011;10178;48.034;9.800;2023-03-23T07:47:03;5.95;;;2.40;;
20034;SDS011;10178;48.034;9.800;2023-03-23T07:49:32;6.63;;;2.42;;
20034;SDS011;10178;48.034;9.800;2023-03-23T07:52:04;3.00;;;2.60;;
20034;SDS011;10178;48.034;9.800;2023-03-23T07:54:33;5.55;;;2.90;;
20034;SDS011;10178;48.034;9.800;2023-03-23T07:57:01;3.40;;;2.70;;
20034;SDS011;10178;48.034;9.800;2023-03-23T07:59:29;3.03;;;2.40;;
20034;SDS011;10178;48.034;9.800;2023-03-23T08:02:00;3.00;;;2.33;;
20034;SDS011;10178;48.034;9.800;2023-03-23T08:04:30;5.00;;;2.88;;
20034;SDS011;10178;48.034;9.800;2023-03-23T08:07:03;3.10;;;2.25;;
20034;SDS011;10178;48.034;9.800;2023-03-23T08:10:06;2.50;;;2.30;;
20034;SDS011;10178;48.034;9.800;2023-03-23T08:12:43;3.65;;;2.25;;
20034;SDS011;10178;48.034;9.800;2023-03-23T08:15:40;3.90;;;2.90;;
20034;SDS011;10178;48.034;9.800;2023-03-23T08:19:08;4.45;;;3.47;;
20034;SDS011;10178;48.034;9.800;2023-03-23T08:22:10;5.03;;;2.47;;
20034;SDS011;10178;48.034;9.800;2023-03-23T08:25:04;4.97;;;3.00;;
20034;SDS011;10178;48.034;9.800;2023-03-23T08:31:06;4.43;;;2.90;;
20034;SDS011;10178;48.034;9.800;2023-03-23T08:33:35;3.85;;;2.60;;
20034;SDS011;10178;48.034;9.800;2023-03-23T08:36:14;3.38;;;2.13;;
20034;SDS011;10178;48.034;9.800;2023-03-23T08:38:58;4.72;;;3.05;;
20034;SDS011;10178;48.034;9.800;2023-03-23T08:41:58;2.55;;;2.35;;
20034;SDS011;10178;48.034;9.800;2023-03-23T08:44:59;3.15;;;2.38;;
20034;SDS011;10178;48.034;9.800;2023-03-23T08:48:31;2.55;;;2.20;;
20034;SDS011;10178;48.034;9.800;2023-03-23T09:02:53;2.67;;;1.95;;
20034;SDS011;10178;48.034;9.800;2023-03-23T09:13:02;2.08;;;1.85;;
20034;SDS011;10178;48.034;9.800;2023-03-23T09:26:38;1.90;;;1.65;;
20034;SDS011;10178;48.034;9.800;2023-03-23T09:34:16;4.32;;;1.67;;
20034;SDS011;10178;48.034;9.800;2023-03-23T09:36:51;2.58;;;1.20;;
20034;SDS011;10178;48.034;9.800;2023-03-23T09:39:29;3.33;;;1.60;;
20034;SDS011;10178;48.034;9.800;2023-03-23T09:51:27;2.72;;;1.58;;
20034;SDS011;10178;48.034;9.800;2023-03-23T09:54:11;2.20;;;1.40;;
20034;SDS011;10178;48.034;9.800;2023-03-23T09:56:44;2.60;;;1.45;;
20034;SDS011;10178;48.034;9.800;2023-03-23T10:02:44;2.42;;;1.42;;
20034;SDS011;10178;48.034;9.800;2023-03-23T10:05:45;1.73;;;1.38;;
20034;SDS011;10178;48.034;9.800;2023-03-23T10:08:27;2.70;;;1.40;;
20034;SDS011;10178;48.034;9.800;2023-03-23T10:22:53;3.22;;;1.33;;
20034;SDS011;10178;48.034;9.800;2023-03-23T10:25:46;1.33;;;1.23;;
20034;SDS011;10178;48.034;9.800;2023-03-23T10:28:42;2.15;;;1.27;;
20034;SDS011;10178;48.034;9.800;2023-03-23T10:31:27;2.25;;;1.40;;
20034;SDS011;10178;48.034;9.800;2023-03-23T10:34:09;4.10;;;1.48;;
20034;SDS011;10178;48.034;9.800;2023-03-23T10:54:25;1.30;;;1.20;;
20034;SDS011;10178;48.034;9.800;2023-03-23T11:29:14;1.50;;;1.40;;
20034;SDS011;10178;48.034;9.800;2023-03-23T11:32:16;2.22;;;1.23;;
20034;SDS011;10178;48.034;9.800;2023-03-23T11:35:56;6.50;;;1.58;;
20034;SDS011;10178;48.034;9.800;2023-03-23T11:38:42;2.65;;;1.63;;
20034;SDS011;10178;48.034;9.800;2023-03-23T11:52:49;7.20;;;1.55;;
20034;SDS011;10178;48.034;9.800;2023-03-23T11:59:00;3.03;;;2.05;;
20034;SDS011;10178;48.034;9.800;2023-03-23T12:19:35;5.13;;;2.08;;
20034;SDS011;10178;48.034;9.800;2023-03-23T12:46:54;3.47;;;1.30;;
20034;SDS011;10178;48.034;9.800;2023-03-23T12:51:55;2.60;;;1.65;;
20034;SDS011;10178;48.034;9.800;2023-03-23T12:57:49;3.45;;;1.70;;
20034;SDS011;10178;48.034;9.800;2023-03-23T13:03:59;3.08;;;1.60;;
20034;SDS011;10178;48.034;9.800;2023-03-23T13:06:45;3.67;;;1.75;;
20034;SDS011;10178;48.034;9.800;2023-03-23T13:09:35;1.73;;;1.52;;
20034;SDS011;10178;48.034;9.800;2023-03-23T13:12:20;1.60;;;1.42;;
20034;SDS011;10178;48.034;9.800;2023-03-23T13:14:50;7.35;;;1.63;;
20034;SDS011;10178;48.034;9.800;2023-03-23T13:31:46;1.92;;;1.67;;
20034;SDS011;10178;48.034;9.800;2023-03-23T13:36:53;4.68;;;1.50;;
20034;SDS011;10178;48.034;9.800;2023-03-23T13:39:29;2.00;;;1.42;;
20034;SDS011;10178;48.034;9.800;2023-03-23T13:42:33;2.13;;;1.38;;
20034;SDS011;10178;48.034;9.800;2023-03-23T13:45:18;2.33;;;1.80;;
20034;SDS011;10178;48.034;9.800;2023-03-23T13:50:51;1.88;;;1.67;;
20034;SDS011;10178;48.034;9.800;2023-03-23T13:53:28;2.72;;;2.05;;
20034;SDS011;10178;48.034;9.800;2023-03-23T13:56:16;2.05;;;1.85;;
20034;SDS011;10178;48.034;9.800;2023-03-23T13:58:48;3.28;;;1.60;;
20034;SDS011;10178;48.034;9.800;2023-03-23T14:01:18;2.10;;;1.50;;
20034;SDS011;10178;48.034;9.800;2023-03-23T14:03:57;2.60;;;1.70;;
20034;SDS011;10178;48.034;9.800;2023-03-23T14:06:25;1.77;;;1.60;;
20034;SDS011;10178;48.034;9.800;2023-03-23T14:09:03;2.42;;;1.70;;
20034;SDS011;10178;48.034;9.800;2023-03-23T14:11:45;3.28;;;1.90;;
20034;SDS011;10178;48.034;9.800;2023-03-23T14:14:32;2.35;;;1.83;;
20034;SDS011;10178;48.034;9.800;2023-03-23T14:17:08;2.80;;;1.88;;
20034;SDS011;10178;48.034;9.800;2023-03-23T14:19:37;2.60;;;1.70;;
20034;SDS011;10178;48.034;9.800;2023-03-23T14:22:05;6.40;;;2.00;;
20034;SDS011;10178;48.034;9.800;2023-03-23T14:25:00;3.13;;;1.80;;
20034;SDS011;10178;48.034;9.800;2023-03-23T14:27:40;2.95;;;1.92;;
20034;SDS011;10178;48.034;9.800;2023-03-23T14:30:13;3.60;;;1.48;;
20034;SDS011;10178;48.034;9.800;2023-03-23T14:32:40;2.70;;;1.80;;
20034;SDS011;10178;48.034;9.800;2023-03-23T14:35:19;1.73;;;1.60;;
20034;SDS011;10178;48.034;9.800;2023-03-23T14:37:54;2.92;;;1.70;;
20034;SDS011;10178;48.034;9.800;2023-03-23T14:40:21;1.88;;;1.77;;
20034;SDS011;10178;48.034;9.800;2023-03-23T14:42:47;4.90;;;1.90;;
20034;SDS011;10178;48.034;9.800;2023-03-23T14:45:16;5.97;;;2.05;;
20034;SDS011;10178;48.034;9.800;2023-03-23T14:47:45;4.97;;;1.90;;
20034;SDS011;10178;48.034;9.800;2023-03-23T14:50:58;2.67;;;2.03;;
20034;SDS011;10178;48.034;9.800;2023-03-23T14:53:11;2.85;;;2.00;;
20034;SDS011;10178;48.034;9.800;2023-03-23T14:55:59;4.15;;;2.47;;
20034;SDS011;10178;48.034;9.800;2023-03-23T14:58:27;3.85;;;2.50;;
20034;SDS011;10178;48.034;9.800;2023-03-23T15:03:43;2.10;;;1.90;;
20034;SDS011;10178;48.034;9.800;2023-03-23T15:06:15;3.72;;;1.95;;
20034;SDS011;10178;48.034;9.800;2023-03-23T15:08:44;3.88;;;2.05;;
20034;SDS011;10178;48.034;9.800;2023-03-23T15:13:45;2.15;;;1.80;;
20034;SDS011;10178;48.034;9.800;2023-03-23T15:16:24;3.60;;;2.05;;
20034;SDS011;10178;48.034;9.800;2023-03-23T15:19:13;3.13;;;2.08;;
20034;SDS011;10178;48.034;9.800;2023-03-23T15:22:17;2.92;;;2.17;;
20034;SDS011;10178;48.034;9.800;2023-03-23T15:25:01;8.75;;;2.40;;
20034;SDS011;10178;48.034;9.800;2023-03-23T15:27:39;2.28;;;1.80;;
20034;SDS011;10178;48.034;9.800;2023-03-23T15:30:15;3.90;;;2.00;;
20034;SDS011;10178;48.034;9.800;2023-03-23T15:32:44;3.67;;;2.67;;
20034;SDS011;10178;48.034;9.800;2023-03-23T15:35:13;2.65;;;2.15;;
20034;SDS011;10178;48.034;9.800;2023-03-23T15:37:51;4.25;;;2.65;;
20034;SDS011;10178;48.034;9.800;2023-03-23T15:40:23;4.95;;;2.35;;
20034;SDS011;10178;48.034;9.800;2023-03-23T15:42:50;2.67;;;1.77;;
20034;SDS011;10178;48.034;9.800;2023-03-23T15:45:50;3.83;;;2.60;;
20034;SDS011;10178;48.034;9.800;2023-03-23T15:48:21;5.05;;;2.10;;
20034;SDS011;10178;48.034;9.800;2023-03-23T15:50:48;2.88;;;2.03;;
20034;SDS011;10178;48.034;9.800;2023-03-23T15:55:51;3.70;;;1.90;;
20034;SDS011;10178;48.034;9.800;2023-03-23T15:58:17;4.38;;;1.92;;
20034;SDS011;10178;48.034;9.800;2023-03-23T16:00:42;5.57;;;2.05;;
20034;SDS011;10178;48.034;9.800;2023-03-23T16:03:15;2.85;;;1.92;;
20034;SDS011;10178;48.034;9.800;2023-03-23T16:05:44;3.28;;;1.90;;
20034;SDS011;10178;48.034;9.800;2023-03-23T16:08:10;2.72;;;1.75;;
20034;SDS011;10178;48.034;9.800;2023-03-23T16:10:36;2.47;;;1.98;;
20034;SDS011;10178;48.034;9.800;2023-03-23T16:13:02;3.35;;;2.10;;
20034;SDS011;10178;48.034;9.800;2023-03-23T16:15:29;3.78;;;2.60;;
20034;SDS011;10178;48.034;9.800;2023-03-23T16:17:55;2.83;;;2.28;;
20034;SDS011;10178;48.034;9.800;2023-03-23T16:20:21;2.45;;;2.13;;
20034;SDS011;10178;48.034;9.800;2023-03-23T16:22:48;2.13;;;1.90;;
20034;SDS011;10178;48.034;9.800;2023-03-23T16:25:15;2.60;;;1.90;;
20034;SDS011;10178;48.034;9.800;2023-03-23T16:27:42;3.53;;;2.40;;
20034;SDS011;10178;48.034;9.800;2023-03-23T16:30:15;4.07;;;2.55;;
20034;SDS011;10178;48.034;9.800;2023-03-23T16:32:43;3.55;;;2.20;;
20034;SDS011;10178;48.034;9.800;2023-03-23T16:35:10;2.40;;;2.00;;
20034;SDS011;10178;48.034;9.800;2023-03-23T16:37:37;4.40;;;2.30;;
20034;SDS011;10178;48.034;9.800;2023-03-23T16:40:04;2.60;;;2.20;;
20034;SDS011;10178;48.034;9.800;2023-03-23T16:42:31;6.60;;;2.63;;
20034;SDS011;10178;48.034;9.800;2023-03-23T16:44:56;7.15;;;2.50;;
20034;SDS011;10178;48.034;9.800;2023-03-23T16:47:23;5.63;;;2.67;;
20034;SDS011;10178;48.034;9.800;2023-03-23T16:49:49;6.40;;;2.05;;
20034;SDS011;10178;48.034;9.800;2023-03-23T16:52:16;4.43;;;2.17;;
20034;SDS011;10178;48.034;9.800;2023-03-23T16:54:42;4.15;;;2.50;;
20034;SDS011;10178;48.034;9.800;2023-03-23T16:57:09;3.50;;;2.13;;
20034;SDS011;10178;48.034;9.800;2023-03-23T16:59:35;5.22;;;2.22;;
20034;SDS011;10178;48.034;9.800;2023-03-23T17:02:01;3.55;;;2.35;;
20034;SDS011;10178;48.034;9.800;2023-03-23T17:04:28;4.13;;;2.95;;
20034;SDS011;10178;48.034;9.800;2023-03-23T17:06:54;3.40;;;2.78;;
20034;SDS011;10178;48.034;9.800;2023-03-23T17:09:23;4.35;;;2.38;;
20034;SDS011;10178;48.034;9.800;2023-03-23T17:11:50;3.80;;;2.00;;
20034;SDS011;10178;48.034;9.800;2023-03-23T17:14:15;2.13;;;1.92;;
20034;SDS011;10178;48.034;9.800;2023-03-23T17:16:41;3.13;;;2.03;;
20034;SDS011;10178;48.034;9.800;2023-03-23T17:19:07;3.65;;;2.15;;
20034;SDS011;10178;48.034;9.800;2023-03-23T17:21:32;5.03;;;1.90;;
20034;SDS011;10178;48.034;9.800;2023-03-23T17:23:58;2.88;;;2.08;;
20034;SDS011;10178;48.034;9.800;2023-03-23T17:26:24;2.67;;;2.17;;
20034;SDS011;10178;48.034;9.800;2023-03-23T17:28:49;3.53;;;2.33;;
20034;SDS011;10178;48.034;9.800;2023-03-23T17:31:15;2.88;;;2.08;;
20034;SDS011;10178;48.034;9.800;2023-03-23T17:33:40;3.22;;;2.10;;
20034;SDS011;10178;48.034;9.800;2023-03-23T17:36:06;2.78;;;2.10;;
20034;SDS011;10178;48.034;9.800;2023-03-23T17:38:32;4.38;;;2.08;;
20034;SDS011;10178;48.034;9.800;2023-03-23T17:40:58;3.28;;;2.30;;
20034;SDS011;10178;48.034;9.800;2023-03-23T17:43:25;6.55;;;5.93;;
20034;SDS011;10178;48.034;9.800;2023-03-23T17:45:51;3.85;;;3.28;;
20034;SDS011;10178;48.034;9.800;2023-03-23T17:48:17;4.43;;;2.10;;
20034;SDS011;10178;48.034;9.800;2023-03-23T17:50:45;2.67;;;2.03;;
20034;SDS011;10178;48.034;9.800;2023-03-23T17:53:12;3.53;;;2.72;;
20034;SDS011;10178;48.034;9.800;2023-03-23T17:55:37;3.78;;;2.42;;
20034;SDS011;10178;48.034;9.800;2023-03-23T17:58:06;4.40;;;2.30;;
20034;SDS011;10178;48.034;9.800;2023-03-23T18:00:32;3.75;;;2.85;;
20034;SDS011;10178;48.034;9.800;2023-03-23T18:02:58;3.65;;;2.30;;
20034;SDS011;10178;48.034;9.800;2023-03-23T18:05:24;2.88;;;2.10;;
20034;SDS011;10178;48.034;9.800;2023-03-23T18:07:51;5.15;;;2.72;;
20034;SDS011;10178;48.034;9.800;2023-03-23T18:10:17;4.93;;;2.13;;
20034;SDS011;10178;48.034;9.800;2023-03-23T18:12:43;11.25;;;6.47;;
20034;SDS011;10178;48.034;9.800;2023-03-23T18:15:09;4.30;;;3.85;;
20034;SDS011;10178;48.034;9.800;2023-03-23T18:17:35;3.53;;;2.85;;
20034;SDS011;10178;48.034;9.800;2023-03-23T18:20:01;4.95;;;3.30;;
20034;SDS011;10178;48.034;9.800;2023-03-23T18:22:27;4.40;;;3.75;;
20034;SDS011;10178;48.034;9.800;2023-03-23T18:24:52;5.22;;;2.63;;
20034;SDS011;10178;48.034;9.800;2023-03-23T18:27:19;3.58;;;2.92;;
20034;SDS011;10178;48.034;9.800;2023-03-23T18:29:44;5.88;;;3.35;;
20034;SDS011;10178;48.034;9.800;2023-03-23T18:32:10;4.22;;;2.90;;
20034;SDS011;10178;48.034;9.800;2023-03-23T18:34:36;4.32;;;2.30;;
20034;SDS011;10178;48.034;9.800;2023-03-23T18:37:05;5.38;;;3.72;;
20034;SDS011;10178;48.034;9.800;2023-03-23T18:39:31;7.93;;;4.57;;
20034;SDS011;10178;48.034;9.800;2023-03-23T18:42:02;7.45;;;5.03;;
20034;SDS011;10178;48.034;9.800;2023-03-23T18:44:28;7.75;;;4.97;;
20034;SDS011;10178;48.034;9.800;2023-03-23T18:46:54;4.88;;;3.47;;
20034;SDS011;10178;48.034;9.800;2023-03-23T18:51:50;11.20;;;5.63;;
20034;SDS011;10178;48.034;9.800;2023-03-23T18:54:15;5.75;;;3.90;;
20034;SDS011;10178;48.034;9.800;2023-03-23T18:56:41;8.60;;;6.90;;
20034;SDS011;10178;48.034;9.800;2023-03-23T18:59:07;10.63;;;6.70;;
20034;SDS011;10178;48.034;9.800;2023-03-23T19:01:33;13.65;;;8.13;;
20034;SDS011;10178;48.034;9.800;2023-03-23T19:03:58;8.15;;;5.25;;
20034;SDS011;10178;48.034;9.800;2023-03-23T19:06:24;8.13;;;6.38;;
20034;SDS011;10178;48.034;9.800;2023-03-23T19:08:52;8.10;;;6.82;;
20034;SDS011;10178;48.034;9.800;2023-03-23T19:11:20;8.35;;;6.60;;